sensor_id;sensor_type;location;lat;lon;timestamp;P1;durP1;ratioP1;P2;durP2;ratioP2
2658;SDS011;1339;53.304;10.406;2022-12-07T00:01:45;20.77;;;14.90;;
2658;SDS011;1339;53.304;10.406;2022-12-07T00:04:13;17.42;;;14.00;;
2658;SDS011;1339;53.304;10.406;2022-12-07T00:06:42;20.30;;;13.50;;
2658;SDS011;1339;53.304;10.406;2022-12-07T00:09:10;17.85;;;15.25;;
2658;SDS011;1339;53.304;10.406;2022-12-07T00:11:37;19.48;;;16.05;;
2658;SDS011;1339;53.304;10.406;2022-12-07T00:14:05;19.52;;;14.23;;
2658;SDS011;1339;53.304;10.406;2022-12-07T00:16:32;20.73;;;15.38;;
2658;SDS011;1339;53.304;10.406;2022-12-07T00:19:00;20.63;;;14.80;;
2658;SDS011;1339;53.304;10.406;2022-12-07T00:21:29;19.77;;;13.82;;
2658;SDS011;1339;53.304;10.406;2022-12-07T00:23:57;17.50;;;13.32;;
2658;SDS011;1339;53.304;10.406;2022-12-07T00:26:25;14.82;;;12.88;;
2658;SDS011;1339;53.304;10.406;2022-12-07T00:28:53;18.30;;;13.55;;
2658;SDS011;1339;53.304;10.406;2022-12-07T00:31:21;18.48;;;13.80;;
2658;SDS011;1339;53.304;10.406;2022-12-07T00:33:49;17.63;;;14.15;;
2658;SDS011;1339;53.304;10.406;2022-12-07T00:36:17;16.33;;;14.15;;
2658;SDS011;1339;53.304;10.406;2022-12-07T00:38:44;17.95;;;14.88;;
2658;SDS011;1339;53.304;10.406;2022-12-07T00:41:13;19.05;;;14.20;;
2658;SDS011;1339;53.304;10.406;2022-12-07T00:43:41;17.63;;;14.90;;
2658;SDS011;1339;53.304;10.406;2022-12-07T00:46:09;16.90;;;13.73;;
2658;SDS011;1339;53.304;10.406;2022-12-07T00:48:36;22.85;;;15.40;;
2658;SDS011;1339;53.304;10.406;2022-12-07T00:51:03;21.10;;;15.98;;
2658;SDS011;1339;53.304;10.406;2022-12-07T00:53:30;17.98;;;13.35;;
2658;SDS011;1339;53.304;10.406;2022-12-07T00:55:57;20.35;;;15.02;;
2658;SDS011;1339;53.304;10.406;2022-12-07T00:58:26;18.23;;;13.95;;
2658;SDS011;1339;53.304;10.406;2022-12-07T01:00:53;20.15;;;13.10;;
2658;SDS011;1339;53.304;10.406;2022-12-07T01:03:20;18.08;;;15.07;;
2658;SDS011;1339;53.304;10.406;2022-12-07T01:05:50;19.08;;;14.15;;
2658;SDS011;1339;53.304;10.406;2022-12-07T01:08:18;17.85;;;14.45;;
2658;SDS011;1339;53.304;10.406;2022-12-07T01:10:45;17.10;;;13.75;;
2658;SDS011;1339;53.304;10.406;2022-12-07T01:13:12;17.38;;;13.10;;
2658;SDS011;1339;53.304;10.406;2022-12-07T01:15:41;18.00;;;13.35;;
2658;SDS011;1339;53.304;10.406;2022-12-07T01:18:08;14.15;;;11.30;;
2658;SDS011;1339;53.304;10.406;2022-12-07T01:20:35;16.27;;;13.52;;
2658;SDS011;1339;53.304;10.406;2022-12-07T01:23:02;20.10;;;13.35;;
2658;SDS011;1339;53.304;10.406;2022-12-07T01:25:29;17.33;;;12.32;;
2658;SDS011;1339;53.304;10.406;2022-12-07T01:27:56;18.45;;;12.55;;
2658;SDS011;1339;53.304;10.406;2022-12-07T01:30:24;18.48;;;13.20;;
2658;SDS011;1339;53.304;10.406;2022-12-07T01:32:52;20.70;;;13.70;;
2658;SDS011;1339;53.304;10.406;2022-12-07T01:35:19;17.73;;;12.90;;
2658;SDS011;1339;53.304;10.406;2022-12-07T01:37:46;20.20;;;12.90;;
2658;SDS011;1339;53.304;10.406;2022-12-07T01:40:13;15.35;;;12.02;;
2658;SDS011;1339;53.304;10.406;2022-12-07T01:42:40;22.35;;;13.60;;
2658;SDS011;1339;53.304;10.406;2022-12-07T01:47:56;20.30;;;14.00;;
2658;SDS011;1339;53.304;10.406;2022-12-07T01:50:25;16.42;;;11.20;;
2658;SDS011;1339;53.304;10.406;2022-12-07T01:52:52;17.58;;;12.80;;
2658;SDS011;1339;53.304;10.406;2022-12-07T01:55:20;19.60;;;12.05;;
2658;SDS011;1339;53.304;10.406;2022-12-07T01:57:49;19.38;;;13.05;;
2658;SDS011;1339;53.304;10.406;2022-12-07T02:00:17;22.75;;;12.35;;
2658;SDS011;1339;53.304;10.406;2022-12-07T02:02:45;19.23;;;13.45;;
2658;SDS011;1339;53.304;10.406;2022-12-07T02:05:15;18.92;;;13.65;;
2658;SDS011;1339;53.304;10.406;2022-12-07T02:07:43;17.55;;;14.25;;
2658;SDS011;1339;53.304;10.406;2022-12-07T02:10:12;22.67;;;14.02;;
2658;SDS011;1339;53.304;10.406;2022-12-07T02:12:39;16.50;;;11.10;;
2658;SDS011;1339;53.304;10.406;2022-12-07T02:15:07;15.43;;;11.63;;
2658;SDS011;1339;53.304;10.406;2022-12-07T02:17:36;16.90;;;13.40;;
2658;SDS011;1339;53.304;10.406;2022-12-07T02:20:12;16.50;;;12.55;;
2658;SDS011;1339;53.304;10.406;2022-12-07T02:25:32;16.90;;;12.75;;
2658;SDS011;1339;53.304;10.406;2022-12-07T02:28:03;16.50;;;13.35;;
2658;SDS011;1339;53.304;10.406;2022-12-07T02:30:33;17.70;;;12.00;;
2658;SDS011;1339;53.304;10.406;2022-12-07T02:33:03;15.77;;;11.48;;
2658;SDS011;1339;53.304;10.406;2022-12-07T02:35:32;15.82;;;10.38;;
2658;SDS011;1339;53.304;10.406;2022-12-07T02:38:02;15.98;;;11.40;;
2658;SDS011;1339;53.304;10.406;2022-12-07T02:40:31;14.38;;;11.00;;
2658;SDS011;1339;53.304;10.406;2022-12-07T02:43:01;14.50;;;11.40;;
2658;SDS011;1339;53.304;10.406;2022-12-07T02:45:31;17.90;;;11.05;;
2658;SDS011;1339;53.304;10.406;2022-12-07T02:48:00;14.48;;;10.55;;
2658;SDS011;1339;53.304;10.406;2022-12-07T02:50:28;13.32;;;10.00;;
2658;SDS011;1339;53.304;10.406;2022-12-07T02:52:55;13.15;;;9.77;;
2658;SDS011;1339;53.304;10.406;2022-12-07T02:55:24;12.93;;;10.85;;
2658;SDS011;1339;53.304;10.406;2022-12-07T02:57:54;18.30;;;10.48;;
2658;SDS011;1339;53.304;10.406;2022-12-07T03:00:29;12.70;;;9.55;;
2658;SDS011;1339;53.304;10.406;2022-12-07T03:02:58;14.88;;;8.75;;
2658;SDS011;1339;53.304;10.406;2022-12-07T03:05:41;12.60;;;8.98;;
2658;SDS011;1339;53.304;10.406;2022-12-07T03:08:12;11.90;;;9.05;;
2658;SDS011;1339;53.304;10.406;2022-12-07T03:10:40;14.95;;;9.73;;
2658;SDS011;1339;53.304;10.406;2022-12-07T03:13:14;9.77;;;8.47;;
2658;SDS011;1339;53.304;10.406;2022-12-07T03:15:45;10.85;;;8.25;;
2658;SDS011;1339;53.304;10.406;2022-12-07T03:18:13;11.20;;;8.13;;
2658;SDS011;1339;53.304;10.406;2022-12-07T03:20:43;9.38;;;7.35;;
2658;SDS011;1339;53.304;10.406;2022-12-07T03:23:11;8.52;;;7.05;;
2658;SDS011;1339;53.304;10.406;2022-12-07T03:25:39;9.15;;;8.00;;
2658;SDS011;1339;53.304;10.406;2022-12-07T03:28:06;12.20;;;6.57;;
2658;SDS011;1339;53.304;10.406;2022-12-07T03:30:36;8.07;;;5.63;;
2658;SDS011;1339;53.304;10.406;2022-12-07T03:33:07;9.18;;;6.05;;
2658;SDS011;1339;53.304;10.406;2022-12-07T03:35:37;13.57;;;6.35;;
2658;SDS011;1339;53.304;10.406;2022-12-07T03:38:11;7.80;;;6.00;;
2658;SDS011;1339;53.304;10.406;2022-12-07T03:40:43;7.40;;;5.68;;
2658;SDS011;1339;53.304;10.406;2022-12-07T03:43:11;7.47;;;5.40;;
2658;SDS011;1339;53.304;10.406;2022-12-07T03:45:39;4.88;;;4.05;;
2658;SDS011;1339;53.304;10.406;2022-12-07T03:48:07;7.50;;;4.80;;
2658;SDS011;1339;53.304;10.406;2022-12-07T03:50:38;5.10;;;4.25;;
2658;SDS011;1339;53.304;10.406;2022-12-07T03:53:11;5.72;;;4.13;;
2658;SDS011;1339;53.304;10.406;2022-12-07T03:55:40;4.80;;;4.30;;
2658;SDS011;1339;53.304;10.406;2022-12-07T03:58:10;6.05;;;4.18;;
2658;SDS011;1339;53.304;10.406;2022-12-07T04:00:37;6.18;;;4.80;;
2658;SDS011;1339;53.304;10.406;2022-12-07T04:03:05;4.35;;;3.95;;
2658;SDS011;1339;53.304;10.406;2022-12-07T04:05:32;4.47;;;4.07;;
2658;SDS011;1339;53.304;10.406;2022-12-07T04:07:59;7.88;;;4.43;;
2658;SDS011;1339;53.304;10.406;2022-12-07T04:10:27;4.88;;;3.63;;
2658;SDS011;1339;53.304;10.406;2022-12-07T04:12:54;5.45;;;3.55;;
2658;SDS011;1339;53.304;10.406;2022-12-07T04:15:21;6.10;;;3.50;;
2658;SDS011;1339;53.304;10.406;2022-12-07T04:17:49;6.53;;;3.60;;
2658;SDS011;1339;53.304;10.406;2022-12-07T04:20:16;7.80;;;4.63;;
2658;SDS011;1339;53.304;10.406;2022-12-07T04:22:43;6.50;;;3.55;;
2658;SDS011;1339;53.304;10.406;2022-12-07T04:25:10;8.30;;;4.57;;
2658;SDS011;1339;53.304;10.406;2022-12-07T04:27:39;4.57;;;3.70;;
2658;SDS011;1339;53.304;10.406;2022-12-07T04:30:06;6.22;;;4.07;;
2658;SDS011;1339;53.304;10.406;2022-12-07T04:32:34;7.90;;;4.10;;
2658;SDS011;1339;53.304;10.406;2022-12-07T04:35:01;6.25;;;4.13;;
2658;SDS011;1339;53.304;10.406;2022-12-07T04:37:28;11.57;;;4.88;;
2658;SDS011;1339;53.304;10.406;2022-12-07T04:39:55;7.07;;;4.85;;
2658;SDS011;1339;53.304;10.406;2022-12-07T04:42:22;5.90;;;5.07;;
2658;SDS011;1339;53.304;10.406;2022-12-07T04:44:50;7.32;;;4.18;;
2658;SDS011;1339;53.304;10.406;2022-12-07T04:47:17;7.20;;;4.43;;
2658;SDS011;1339;53.304;10.406;2022-12-07T04:49:44;7.18;;;4.55;;
2658;SDS011;1339;53.304;10.406;2022-12-07T04:52:11;8.23;;;4.32;;
2658;SDS011;1339;53.304;10.406;2022-12-07T04:54:38;3.90;;;3.53;;
2658;SDS011;1339;53.304;10.406;2022-12-07T04:57:05;5.85;;;3.92;;
2658;SDS011;1339;53.304;10.406;2022-12-07T04:59:32;5.85;;;4.03;;
2658;SDS011;1339;53.304;10.406;2022-12-07T05:02:01;5.43;;;3.28;;
2658;SDS011;1339;53.304;10.406;2022-12-07T05:04:28;5.45;;;3.60;;
2658;SDS011;1339;53.304;10.406;2022-12-07T05:06:55;4.93;;;3.10;;
2658;SDS011;1339;53.304;10.406;2022-12-07T05:09:22;4.72;;;3.33;;
2658;SDS011;1339;53.304;10.406;2022-12-07T05:11:49;6.78;;;3.47;;
2658;SDS011;1339;53.304;10.406;2022-12-07T05:14:17;4.80;;;3.60;;
2658;SDS011;1339;53.304;10.406;2022-12-07T05:16:45;4.45;;;2.88;;
2658;SDS011;1339;53.304;10.406;2022-12-07T05:19:14;4.43;;;3.65;;
2658;SDS011;1339;53.304;10.406;2022-12-07T05:21:41;4.55;;;4.15;;
2658;SDS011;1339;53.304;10.406;2022-12-07T05:24:09;7.30;;;3.70;;
2658;SDS011;1339;53.304;10.406;2022-12-07T05:26:37;3.97;;;3.05;;
2658;SDS011;1339;53.304;10.406;2022-12-07T05:29:04;4.50;;;2.60;;
2658;SDS011;1339;53.304;10.406;2022-12-07T05:31:31;4.07;;;3.25;;
2658;SDS011;1339;53.304;10.406;2022-12-07T05:33:59;3.58;;;3.28;;
2658;SDS011;1339;53.304;10.406;2022-12-07T05:36:27;3.92;;;2.90;;
2658;SDS011;1339;53.304;10.406;2022-12-07T05:38:56;10.70;;;3.75;;
2658;SDS011;1339;53.304;10.406;2022-12-07T05:41:23;4.70;;;3.50;;
2658;SDS011;1339;53.304;10.406;2022-12-07T05:44:07;2.92;;;2.65;;
2658;SDS011;1339;53.304;10.406;2022-12-07T05:46:35;3.78;;;3.25;;
2658;SDS011;1339;53.304;10.406;2022-12-07T05:49:02;5.18;;;2.47;;
2658;SDS011;1339;53.304;10.406;2022-12-07T05:51:30;4.13;;;2.53;;
2658;SDS011;1339;53.304;10.406;2022-12-07T05:53:57;5.00;;;3.03;;
2658;SDS011;1339;53.304;10.406;2022-12-07T05:56:24;4.72;;;2.90;;
2658;SDS011;1339;53.304;10.406;2022-12-07T05:58:52;4.88;;;2.60;;
2658;SDS011;1339;53.304;10.406;2022-12-07T06:01:37;4.43;;;3.50;;
2658;SDS011;1339;53.304;10.406;2022-12-07T06:04:04;2.92;;;2.22;;
2658;SDS011;1339;53.304;10.406;2022-12-07T06:06:32;5.10;;;3.30;;
2658;SDS011;1339;53.304;10.406;2022-12-07T06:08:59;3.47;;;2.67;;
2658;SDS011;1339;53.304;10.406;2022-12-07T06:11:26;3.55;;;3.00;;
2658;SDS011;1339;53.304;10.406;2022-12-07T06:14:11;2.60;;;2.40;;
2658;SDS011;1339;53.304;10.406;2022-12-07T06:16:38;3.72;;;2.97;;
2658;SDS011;1339;53.304;10.406;2022-12-07T06:19:05;3.88;;;3.58;;
2658;SDS011;1339;53.304;10.406;2022-12-07T06:21:34;4.50;;;3.40;;
2658;SDS011;1339;53.304;10.406;2022-12-07T06:24:01;2.97;;;2.78;;
2658;SDS011;1339;53.304;10.406;2022-12-07T06:26:28;3.28;;;2.90;;
2658;SDS011;1339;53.304;10.406;2022-12-07T06:28:55;4.35;;;2.88;;
2658;SDS011;1339;53.304;10.406;2022-12-07T06:31:22;3.80;;;2.60;;
2658;SDS011;1339;53.304;10.406;2022-12-07T06:33:49;3.92;;;2.42;;
2658;SDS011;1339;53.304;10.406;2022-12-07T06:36:16;3.50;;;2.85;;
2658;SDS011;1339;53.304;10.406;2022-12-07T06:38:44;4.90;;;2.58;;
2658;SDS011;1339;53.304;10.406;2022-12-07T06:41:11;8.50;;;3.78;;
2658;SDS011;1339;53.304;10.406;2022-12-07T06:43:38;3.88;;;3.28;;
2658;SDS011;1339;53.304;10.406;2022-12-07T06:46:07;4.10;;;2.95;;
2658;SDS011;1339;53.304;10.406;2022-12-07T06:48:34;4.95;;;3.78;;
2658;SDS011;1339;53.304;10.406;2022-12-07T06:51:01;3.17;;;2.85;;
2658;SDS011;1339;53.304;10.406;2022-12-07T06:53:28;4.93;;;3.40;;
2658;SDS011;1339;53.304;10.406;2022-12-07T06:55:56;8.63;;;3.30;;
2658;SDS011;1339;53.304;10.406;2022-12-07T06:58:24;3.20;;;2.90;;
2658;SDS011;1339;53.304;10.406;2022-12-07T07:00:51;7.88;;;3.85;;
2658;SDS011;1339;53.304;10.406;2022-12-07T07:03:18;3.80;;;2.50;;
2658;SDS011;1339;53.304;10.406;2022-12-07T07:05:45;3.25;;;2.95;;
2658;SDS011;1339;53.304;10.406;2022-12-07T07:08:13;5.00;;;2.83;;
2658;SDS011;1339;53.304;10.406;2022-12-07T07:10:40;5.15;;;3.03;;
2658;SDS011;1339;53.304;10.406;2022-12-07T07:13:08;5.43;;;3.95;;
2658;SDS011;1339;53.304;10.406;2022-12-07T07:15:37;6.85;;;3.55;;
2658;SDS011;1339;53.304;10.406;2022-12-07T07:18:04;4.50;;;3.30;;
2658;SDS011;1339;53.304;10.406;2022-12-07T07:20:31;4.18;;;3.45;;
2658;SDS011;1339;53.304;10.406;2022-12-07T07:22:58;5.80;;;3.72;;
2658;SDS011;1339;53.304;10.406;2022-12-07T07:25:25;4.60;;;2.60;;
2658;SDS011;1339;53.304;10.406;2022-12-07T07:27:52;4.82;;;3.40;;
2658;SDS011;1339;53.304;10.406;2022-12-07T07:30:21;5.15;;;2.45;;
2658;SDS011;1339;53.304;10.406;2022-12-07T07:32:48;6.60;;;3.25;;
2658;SDS011;1339;53.304;10.406;2022-12-07T07:35:15;3.38;;;2.60;;
2658;SDS011;1339;53.304;10.406;2022-12-07T07:37:42;3.80;;;2.70;;
2658;SDS011;1339;53.304;10.406;2022-12-07T07:40:09;11.02;;;3.38;;
2658;SDS011;1339;53.304;10.406;2022-12-07T07:42:37;6.45;;;2.58;;
2658;SDS011;1339;53.304;10.406;2022-12-07T07:45:04;5.85;;;3.45;;
2658;SDS011;1339;53.304;10.406;2022-12-07T07:47:33;7.30;;;3.70;;
2658;SDS011;1339;53.304;10.406;2022-12-07T07:50:00;4.43;;;3.00;;
2658;SDS011;1339;53.304;10.406;2022-12-07T07:52:27;6.60;;;4.18;;
2658;SDS011;1339;53.304;10.406;2022-12-07T07:54:54;4.35;;;3.03;;
2658;SDS011;1339;53.304;10.406;2022-12-07T07:57:21;3.38;;;2.90;;
2658;SDS011;1339;53.304;10.406;2022-12-07T07:59:48;3.90;;;2.90;;
2658;SDS011;1339;53.304;10.406;2022-12-07T08:02:16;3.95;;;3.50;;
2658;SDS011;1339;53.304;10.406;2022-12-07T08:04:45;3.80;;;3.00;;
2658;SDS011;1339;53.304;10.406;2022-12-07T08:07:12;4.57;;;2.90;;
2658;SDS011;1339;53.304;10.406;2022-12-07T08:09:40;3.90;;;3.00;;
2658;SDS011;1339;53.304;10.406;2022-12-07T08:12:07;3.80;;;2.63;;
2658;SDS011;1339;53.304;10.406;2022-12-07T08:14:34;6.47;;;3.05;;
2658;SDS011;1339;53.304;10.406;2022-12-07T08:17:01;6.82;;;3.47;;
2658;SDS011;1339;53.304;10.406;2022-12-07T08:19:31;3.80;;;3.10;;
2658;SDS011;1339;53.304;10.406;2022-12-07T08:21:59;3.10;;;2.88;;
2658;SDS011;1339;53.304;10.406;2022-12-07T08:24:27;5.15;;;4.72;;
2658;SDS011;1339;53.304;10.406;2022-12-07T08:26:54;3.20;;;2.90;;
2658;SDS011;1339;53.304;10.406;2022-12-07T08:29:21;4.47;;;3.00;;
2658;SDS011;1339;53.304;10.406;2022-12-07T08:31:48;3.50;;;3.20;;
2658;SDS011;1339;53.304;10.406;2022-12-07T08:34:15;6.82;;;2.45;;
2658;SDS011;1339;53.304;10.406;2022-12-07T08:36:42;5.55;;;3.00;;
2658;SDS011;1339;53.304;10.406;2022-12-07T08:39:10;3.05;;;2.85;;
2658;SDS011;1339;53.304;10.406;2022-12-07T08:41:38;4.90;;;3.10;;
2658;SDS011;1339;53.304;10.406;2022-12-07T08:44:05;3.80;;;2.65;;
2658;SDS011;1339;53.304;10.406;2022-12-07T08:46:32;4.22;;;3.50;;
2658;SDS011;1339;53.304;10.406;2022-12-07T08:49:03;3.55;;;3.00;;
2658;SDS011;1339;53.304;10.406;2022-12-07T08:51:31;5.88;;;2.78;;
2658;SDS011;1339;53.304;10.406;2022-12-07T08:53:58;3.08;;;2.78;;
2658;SDS011;1339;53.304;10.406;2022-12-07T08:56:28;7.95;;;2.95;;
2658;SDS011;1339;53.304;10.406;2022-12-07T08:58:55;5.13;;;2.42;;
2658;SDS011;1339;53.304;10.406;2022-12-07T09:01:22;2.47;;;2.38;;
2658;SDS011;1339;53.304;10.406;2022-12-07T09:03:52;5.07;;;2.70;;
2658;SDS011;1339;53.304;10.406;2022-12-07T09:06:19;4.35;;;2.63;;
2658;SDS011;1339;53.304;10.406;2022-12-07T09:08:47;3.63;;;2.60;;
2658;SDS011;1339;53.304;10.406;2022-12-07T09:11:16;3.80;;;3.17;;
2658;SDS011;1339;53.304;10.406;2022-12-07T09:13:45;3.38;;;3.05;;
2658;SDS011;1339;53.304;10.406;2022-12-07T09:16:12;3.75;;;3.17;;
2658;SDS011;1339;53.304;10.406;2022-12-07T09:18:39;4.35;;;3.10;;
2658;SDS011;1339;53.304;10.406;2022-12-07T09:21:07;2.50;;;2.20;;
2658;SDS011;1339;53.304;10.406;2022-12-07T09:23:34;3.58;;;3.20;;
2658;SDS011;1339;53.304;10.406;2022-12-07T09:26:01;2.70;;;2.50;;
2658;SDS011;1339;53.304;10.406;2022-12-07T09:28:29;5.50;;;2.65;;
2658;SDS011;1339;53.304;10.406;2022-12-07T09:30:58;3.15;;;2.45;;
2658;SDS011;1339;53.304;10.406;2022-12-07T09:33:25;2.25;;;2.13;;
2658;SDS011;1339;53.304;10.406;2022-12-07T09:35:52;3.53;;;2.58;;
2658;SDS011;1339;53.304;10.406;2022-12-07T09:38:19;2.53;;;2.13;;
2658;SDS011;1339;53.304;10.406;2022-12-07T09:40:47;13.63;;;2.53;;
2658;SDS011;1339;53.304;10.406;2022-12-07T09:43:15;5.25;;;2.05;;
2658;SDS011;1339;53.304;10.406;2022-12-07T09:45:43;3.90;;;2.58;;
2658;SDS011;1339;53.304;10.406;2022-12-07T09:48:15;3.30;;;2.13;;
2658;SDS011;1339;53.304;10.406;2022-12-07T09:50:43;4.50;;;1.85;;
2658;SDS011;1339;53.304;10.406;2022-12-07T09:53:13;4.00;;;1.83;;
2658;SDS011;1339;53.304;10.406;2022-12-07T09:55:41;2.58;;;2.10;;
2658;SDS011;1339;53.304;10.406;2022-12-07T09:58:10;5.72;;;2.35;;
2658;SDS011;1339;53.304;10.406;2022-12-07T10:00:43;3.47;;;2.30;;
2658;SDS011;1339;53.304;10.406;2022-12-07T10:03:10;4.38;;;1.80;;
2658;SDS011;1339;53.304;10.406;2022-12-07T10:05:40;3.42;;;2.10;;
2658;SDS011;1339;53.304;10.406;2022-12-07T10:08:08;2.10;;;1.90;;
2658;SDS011;1339;53.304;10.406;2022-12-07T10:10:35;4.53;;;2.08;;
2658;SDS011;1339;53.304;10.406;2022-12-07T10:13:04;5.75;;;2.50;;
2658;SDS011;1339;53.304;10.406;2022-12-07T10:15:42;3.03;;;2.72;;
2658;SDS011;1339;53.304;10.406;2022-12-07T10:18:21;11.07;;;2.58;;
2658;SDS011;1339;53.304;10.406;2022-12-07T10:20:50;5.63;;;1.83;;
2658;SDS011;1339;53.304;10.406;2022-12-07T10:23:26;5.03;;;2.15;;
2658;SDS011;1339;53.304;10.406;2022-12-07T10:25:54;3.58;;;2.10;;
2658;SDS011;1339;53.304;10.406;2022-12-07T10:28:21;4.95;;;2.17;;
2658;SDS011;1339;53.304;10.406;2022-12-07T10:30:50;2.45;;;2.25;;
2658;SDS011;1339;53.304;10.406;2022-12-07T10:33:27;5.57;;;4.15;;
2658;SDS011;1339;53.304;10.406;2022-12-07T10:35:56;4.60;;;2.85;;
2658;SDS011;1339;53.304;10.406;2022-12-07T10:38:24;3.67;;;2.83;;
2658;SDS011;1339;53.304;10.406;2022-12-07T10:41:02;4.25;;;2.80;;
2658;SDS011;1339;53.304;10.406;2022-12-07T10:43:29;2.75;;;2.22;;
2658;SDS011;1339;53.304;10.406;2022-12-07T10:46:06;3.38;;;1.98;;
2658;SDS011;1339;53.304;10.406;2022-12-07T10:48:36;1.67;;;1.58;;
2658;SDS011;1339;53.304;10.406;2022-12-07T10:51:08;1.90;;;1.70;;
2658;SDS011;1339;53.304;10.406;2022-12-07T10:53:43;4.85;;;1.40;;
2658;SDS011;1339;53.304;10.406;2022-12-07T10:56:19;4.68;;;1.20;;
2658;SDS011;1339;53.304;10.406;2022-12-07T10:58:54;3.20;;;1.50;;
2658;SDS011;1339;53.304;10.406;2022-12-07T11:01:24;1.90;;;1.13;;
2658;SDS011;1339;53.304;10.406;2022-12-07T11:04:00;3.17;;;1.13;;
2658;SDS011;1339;53.304;10.406;2022-12-07T11:06:33;4.20;;;1.65;;
2658;SDS011;1339;53.304;10.406;2022-12-07T11:09:04;1.10;;;1.00;;
2658;SDS011;1339;53.304;10.406;2022-12-07T11:11:38;1.45;;;1.08;;
2658;SDS011;1339;53.304;10.406;2022-12-07T11:14:10;1.90;;;1.30;;
2658;SDS011;1339;53.304;10.406;2022-12-07T11:16:46;3.72;;;1.15;;
2658;SDS011;1339;53.304;10.406;2022-12-07T11:19:18;2.45;;;0.93;;
2658;SDS011;1339;53.304;10.406;2022-12-07T11:21:52;2.88;;;1.25;;
2658;SDS011;1339;53.304;10.406;2022-12-07T11:24:23;4.65;;;1.00;;
2658;SDS011;1339;53.304;10.406;2022-12-07T11:26:57;3.38;;;1.10;;
2658;SDS011;1339;53.304;10.406;2022-12-07T11:29:28;2.60;;;1.10;;
2658;SDS011;1339;53.304;10.406;2022-12-07T11:32:01;4.47;;;1.10;;
2658;SDS011;1339;53.304;10.406;2022-12-07T11:34:34;5.97;;;1.52;;
2658;SDS011;1339;53.304;10.406;2022-12-07T11:37:05;1.42;;;0.93;;
2658;SDS011;1339;53.304;10.406;2022-12-07T11:39:39;3.92;;;1.23;;
2658;SDS011;1339;53.304;10.406;2022-12-07T11:42:09;1.77;;;1.40;;
2658;SDS011;1339;53.304;10.406;2022-12-07T11:44:47;1.23;;;0.90;;
2658;SDS011;1339;53.304;10.406;2022-12-07T11:47:16;2.72;;;1.05;;
2658;SDS011;1339;53.304;10.406;2022-12-07T11:49:47;3.38;;;1.30;;
2658;SDS011;1339;53.304;10.406;2022-12-07T11:52:20;1.58;;;0.90;;
2658;SDS011;1339;53.304;10.406;2022-12-07T11:54:49;1.45;;;0.80;;
2658;SDS011;1339;53.304;10.406;2022-12-07T11:57:19;2.35;;;1.58;;
2658;SDS011;1339;53.304;10.406;2022-12-07T11:59:48;3.30;;;1.73;;
2658;SDS011;1339;53.304;10.406;2022-12-07T12:02:18;2.55;;;1.60;;
2658;SDS011;1339;53.304;10.406;2022-12-07T12:04:50;1.77;;;1.20;;
2658;SDS011;1339;53.304;10.406;2022-12-07T12:07:21;5.13;;;1.83;;
2658;SDS011;1339;53.304;10.406;2022-12-07T12:09:49;6.05;;;2.65;;
2658;SDS011;1339;53.304;10.406;2022-12-07T12:12:21;5.10;;;1.88;;
2658;SDS011;1339;53.304;10.406;2022-12-07T12:14:54;3.60;;;1.83;;
2658;SDS011;1339;53.304;10.406;2022-12-07T12:17:35;5.75;;;1.38;;
2658;SDS011;1339;53.304;10.406;2022-12-07T12:20:06;2.60;;;1.63;;
2658;SDS011;1339;53.304;10.406;2022-12-07T12:22:43;5.95;;;1.83;;
2658;SDS011;1339;53.304;10.406;2022-12-07T12:25:14;5.18;;;1.65;;
2658;SDS011;1339;53.304;10.406;2022-12-07T12:27:44;2.30;;;1.50;;
2658;SDS011;1339;53.304;10.406;2022-12-07T12:30:24;2.78;;;1.33;;
2658;SDS011;1339;53.304;10.406;2022-12-07T12:32:51;3.78;;;1.75;;
2658;SDS011;1339;53.304;10.406;2022-12-07T12:35:27;4.95;;;2.05;;
2658;SDS011;1339;53.304;10.406;2022-12-07T12:38:01;5.68;;;1.52;;
2658;SDS011;1339;53.304;10.406;2022-12-07T12:40:43;3.63;;;1.25;;
2658;SDS011;1339;53.304;10.406;2022-12-07T12:48:38;2.50;;;1.30;;
2658;SDS011;1339;53.304;10.406;2022-12-07T12:53:52;5.43;;;1.60;;
2658;SDS011;1339;53.304;10.406;2022-12-07T12:56:34;6.40;;;1.40;;
2658;SDS011;1339;53.304;10.406;2022-12-07T12:59:21;4.28;;;1.20;;
2658;SDS011;1339;53.304;10.406;2022-12-07T13:01:49;2.10;;;1.27;;
2658;SDS011;1339;53.304;10.406;2022-12-07T13:04:18;4.28;;;1.67;;
2658;SDS011;1339;53.304;10.406;2022-12-07T13:06:48;5.55;;;1.77;;
2658;SDS011;1339;53.304;10.406;2022-12-07T13:09:19;2.00;;;1.80;;
2658;SDS011;1339;53.304;10.406;2022-12-07T13:11:47;2.75;;;1.33;;
2658;SDS011;1339;53.304;10.406;2022-12-07T13:17:01;6.25;;;2.15;;
2658;SDS011;1339;53.304;10.406;2022-12-07T13:25:21;4.18;;;1.92;;
2658;SDS011;1339;53.304;10.406;2022-12-07T13:27:51;5.63;;;1.80;;
2658;SDS011;1339;53.304;10.406;2022-12-07T13:30:23;7.30;;;1.92;;
2658;SDS011;1339;53.304;10.406;2022-12-07T13:32:53;2.78;;;2.08;;
2658;SDS011;1339;53.304;10.406;2022-12-07T13:35:28;1.80;;;1.70;;
2658;SDS011;1339;53.304;10.406;2022-12-07T13:37:55;3.50;;;1.92;;
2658;SDS011;1339;53.304;10.406;2022-12-07T13:40:24;5.30;;;1.88;;
2658;SDS011;1339;53.304;10.406;2022-12-07T13:42:57;2.50;;;1.48;;
2658;SDS011;1339;53.304;10.406;2022-12-07T13:45:25;8.35;;;1.63;;
2658;SDS011;1339;53.304;10.406;2022-12-07T13:48:14;1.55;;;1.35;;
2658;SDS011;1339;53.304;10.406;2022-12-07T13:50:42;3.17;;;1.50;;
2658;SDS011;1339;53.304;10.406;2022-12-07T13:53:11;10.63;;;2.33;;
2658;SDS011;1339;53.304;10.406;2022-12-07T13:55:45;5.90;;;2.17;;
2658;SDS011;1339;53.304;10.406;2022-12-07T13:58:13;3.75;;;1.90;;
2658;SDS011;1339;53.304;10.406;2022-12-07T14:00:40;10.35;;;2.25;;
2658;SDS011;1339;53.304;10.406;2022-12-07T14:03:22;6.88;;;1.83;;
2658;SDS011;1339;53.304;10.406;2022-12-07T14:06:02;1.77;;;1.25;;
2658;SDS011;1339;53.304;10.406;2022-12-07T14:08:30;4.22;;;1.80;;
2658;SDS011;1339;53.304;10.406;2022-12-07T14:10:58;4.03;;;1.80;;
2658;SDS011;1339;53.304;10.406;2022-12-07T14:13:27;9.13;;;2.60;;
2658;SDS011;1339;53.304;10.406;2022-12-07T14:15:55;3.28;;;1.80;;
2658;SDS011;1339;53.304;10.406;2022-12-07T14:18:25;2.50;;;1.48;;
2658;SDS011;1339;53.304;10.406;2022-12-07T14:21:02;4.70;;;1.88;;
2658;SDS011;1339;53.304;10.406;2022-12-07T14:23:29;8.55;;;1.70;;
2658;SDS011;1339;53.304;10.406;2022-12-07T14:26:06;7.72;;;2.20;;
2658;SDS011;1339;53.304;10.406;2022-12-07T14:28:34;2.63;;;1.50;;
2658;SDS011;1339;53.304;10.406;2022-12-07T14:31:02;6.95;;;1.73;;
2658;SDS011;1339;53.304;10.406;2022-12-07T14:33:29;7.40;;;1.48;;
2658;SDS011;1339;53.304;10.406;2022-12-07T14:35:57;3.97;;;1.90;;
2658;SDS011;1339;53.304;10.406;2022-12-07T14:38:24;5.55;;;2.35;;
2658;SDS011;1339;53.304;10.406;2022-12-07T14:40:51;2.58;;;1.88;;
2658;SDS011;1339;53.304;10.406;2022-12-07T14:43:20;7.70;;;2.10;;
2658;SDS011;1339;53.304;10.406;2022-12-07T14:45:47;5.53;;;1.90;;
2658;SDS011;1339;53.304;10.406;2022-12-07T14:48:15;3.90;;;1.92;;
2658;SDS011;1339;53.304;10.406;2022-12-07T14:50:43;5.10;;;2.00;;
2658;SDS011;1339;53.304;10.406;2022-12-07T14:53:12;2.75;;;1.40;;
2658;SDS011;1339;53.304;10.406;2022-12-07T14:55:39;5.93;;;1.70;;
2658;SDS011;1339;53.304;10.406;2022-12-07T14:58:08;8.23;;;2.75;;
2658;SDS011;1339;53.304;10.406;2022-12-07T15:00:40;4.47;;;2.10;;
2658;SDS011;1339;53.304;10.406;2022-12-07T15:03:07;1.83;;;1.33;;
2658;SDS011;1339;53.304;10.406;2022-12-07T15:05:34;3.78;;;1.65;;
2658;SDS011;1339;53.304;10.406;2022-12-07T15:08:02;6.15;;;2.40;;
2658;SDS011;1339;53.304;10.406;2022-12-07T15:10:30;3.15;;;1.65;;
2658;SDS011;1339;53.304;10.406;2022-12-07T15:12:57;3.83;;;1.90;;
2658;SDS011;1339;53.304;10.406;2022-12-07T15:15:46;3.53;;;1.77;;
2658;SDS011;1339;53.304;10.406;2022-12-07T15:18:14;3.45;;;1.77;;
2658;SDS011;1339;53.304;10.406;2022-12-07T15:20:41;5.20;;;1.70;;
2658;SDS011;1339;53.304;10.406;2022-12-07T15:23:08;5.57;;;1.90;;
2658;SDS011;1339;53.304;10.406;2022-12-07T15:25:36;2.00;;;1.45;;
2658;SDS011;1339;53.304;10.406;2022-12-07T15:28:03;3.05;;;2.50;;
2658;SDS011;1339;53.304;10.406;2022-12-07T15:30:30;3.38;;;3.08;;